Time;durP1;ratioP1;P1;durP2;ratioP2;P2;SDS_P1;SDS_P2;PMS_P1;PMS_P2;Temp;Humidity;BMP_temperature;BMP_pressure;BME280_temperature;BME280_humidity;BME280_pressure;Samples;Min_cycle;Max_cycle;Signal;HPM_P1;HPM_P2
2021/05/09 00:02:14;;;;;;;10.27;8.13;;;;;;;9.12;100.00;96153.75;5005717;28;20034;-64
2021/05/09 00:04:43;;;;;;;10.98;7.57;;;;;;;9.13;100.00;96156.28;5002440;28;20038;-62
2021/05/09 00:07:12;;;;;;;8.95;7.20;;;;;;;8.93;100.00;96154.66;4986280;28;20038;-64
2021/05/09 00:09:41;;;;;;;6.90;6.15;;;;;;;8.88;100.00;96151.59;4985584;28;20026;-65
2021/05/09 00:12:09;;;;;;;8.35;6.35;;;;;;;8.88;100.00;96154.25;4985598;28;20042;-64
2021/05/09 00:14:37;;;;;;;6.53;5.82;;;;;;;8.90;100.00;96150.50;4991002;28;20755;-62
2021/05/09 00:17:06;;;;;;;8.75;6.97;;;;;;;8.92;100.00;96148.56;4977801;28;20045;-65
2021/05/09 00:19:35;;;;;;;7.03;6.25;;;;;;;8.72;100.00;96144.31;4990645;28;20458;-64
2021/05/09 00:22:04;;;;;;;9.45;6.05;;;;;;;8.87;100.00;96149.97;5006129;28;20038;-65
2021/05/09 00:24:33;;;;;;;7.93;6.80;;;;;;;8.93;100.00;96144.13;4999810;28;20070;-63
2021/05/09 00:27:01;;;;;;;7.30;6.55;;;;;;;8.80;100.00;96145.25;5004369;28;20104;-65
2021/05/09 00:29:30;;;;;;;8.27;6.95;;;;;;;8.75;100.00;96146.69;5011482;28;20077;-63
2021/05/09 00:31:58;;;;;;;9.00;6.90;;;;;;;8.36;100.00;96145.81;4986825;28;20061;-65
2021/05/09 00:34:27;;;;;;;8.77;7.45;;;;;;;8.22;100.00;96153.16;5003817;28;20034;-65
2021/05/09 00:36:56;;;;;;;10.32;7.25;;;;;;;7.99;100.00;96149.16;5001858;28;20065;-65
2021/05/09 00:39:25;;;;;;;9.10;7.07;;;;;;;8.12;100.00;96151.50;4980718;28;20099;-63
2021/05/09 00:42:00;;;;;;;7.95;7.10;;;;;;;8.43;100.00;96141.72;5004397;28;20523;-64
2021/05/09 00:44:28;;;;;;;9.50;6.75;;;;;;;8.40;100.00;96148.09;5014239;28;20080;-64
2021/05/09 00:46:57;;;;;;;8.30;6.57;;;;;;;8.48;100.00;96148.22;5003352;28;20065;-65
2021/05/09 00:49:25;;;;;;;8.23;6.38;;;;;;;8.49;100.00;96146.41;5002535;28;20045;-64
2021/05/09 00:51:53;;;;;;;8.20;6.95;;;;;;;8.48;100.00;96137.69;5004551;28;20439;-63
2021/05/09 00:54:23;;;;;;;7.63;6.88;;;;;;;8.26;100.00;96137.97;4997091;28;20058;-64
2021/05/09 00:56:52;;;;;;;7.80;6.63;;;;;;;8.48;100.00;96139.50;5007368;28;20053;-63
2021/05/09 00:59:20;;;;;;;7.53;6.63;;;;;;;8.39;100.00;96150.84;5005451;28;20606;-63
2021/05/09 01:01:49;;;;;;;8.13;6.65;;;;;;;8.47;100.00;96140.50;4986419;28;20076;-64
2021/05/09 01:04:18;;;;;;;7.00;6.20;;;;;;;8.33;100.00;96139.91;5003049;28;20074;-67
2021/05/09 01:06:46;;;;;;;7.07;6.25;;;;;;;8.31;100.00;96143.63;4988221;28;20073;-66
2021/05/09 01:09:14;;;;;;;7.18;6.45;;;;;;;8.50;100.00;96138.41;5001535;28;20057;-65
2021/05/09 01:11:44;;;;;;;7.22;6.20;;;;;;;8.56;100.00;96129.13;5006704;28;20085;-65
2021/05/09 01:14:13;;;;;;;7.10;6.40;;;;;;;8.54;100.00;96129.28;4990594;28;20033;-64
2021/05/09 01:16:43;;;;;;;8.13;6.55;;;;;;;8.43;100.00;96126.81;4993334;28;20076;-65
2021/05/09 01:19:11;;;;;;;8.80;7.60;;;;;;;8.33;100.00;96131.19;4990590;28;20038;-65
2021/05/09 01:21:41;;;;;;;9.20;7.05;;;;;;;8.01;100.00;96126.19;5006590;28;20066;-64
2021/05/09 01:24:10;;;;;;;8.85;7.65;;;;;;;8.06;100.00;96124.00;5004709;28;20452;-65
2021/05/09 01:26:39;;;;;;;8.40;6.95;;;;;;;7.92;100.00;96124.41;4994795;28;20041;-64
2021/05/09 01:29:06;;;;;;;9.23;7.45;;;;;;;8.21;100.00;96119.97;5008258;28;20046;-64
2021/05/09 01:31:35;;;;;;;9.07;7.50;;;;;;;8.45;100.00;96116.13;4988611;28;20464;-65
2021/05/09 01:34:04;;;;;;;9.55;7.13;;;;;;;8.48;100.00;96108.78;4994868;28;20070;-64
2021/05/09 01:36:32;;;;;;;8.30;7.10;;;;;;;8.38;100.00;96121.13;5006709;28;20036;-64
2021/05/09 01:39:02;;;;;;;6.38;5.78;;;;;;;8.13;100.00;96109.34;5007413;28;20042;-64
2021/05/09 01:41:30;;;;;;;6.17;5.53;;;;;;;7.76;100.00;96102.13;4997960;28;20423;-66
2021/05/09 01:43:58;;;;;;;9.15;6.70;;;;;;;7.97;100.00;96112.50;4988759;28;20069;-66
2021/05/09 01:46:27;;;;;;;9.68;6.43;;;;;;;8.03;100.00;96119.03;4993665;28;20157;-64
2021/05/09 01:48:56;;;;;;;6.40;5.72;;;;;;;7.88;100.00;96105.47;4988816;28;20073;-64
2021/05/09 01:51:24;;;;;;;7.30;6.32;;;;;;;7.93;100.00;96115.56;4990777;28;20057;-65
2021/05/09 01:53:52;;;;;;;8.95;5.90;;;;;;;7.51;100.00;96121.81;4990085;28;20038;-63
2021/05/09 01:56:22;;;;;;;6.97;6.15;;;;;;;7.55;100.00;96109.28;5010107;28;20050;-63
2021/05/09 01:58:50;;;;;;;6.32;5.72;;;;;;;7.44;100.00;96125.94;5006969;28;20089;-64
2021/05/09 02:01:19;;;;;;;6.20;5.60;;;;;;;7.33;100.00;96107.69;5005668;28;20038;-63
2021/05/09 02:03:47;;;;;;;6.70;6.00;;;;;;;7.33;100.00;96116.41;4990379;28;20053;-65
2021/05/09 02:06:15;;;;;;;6.93;6.22;;;;;;;6.90;100.00;96122.69;5004630;28;20448;-64
2021/05/09 02:08:44;;;;;;;7.85;6.32;;;;;;;7.08;100.00;96108.97;5014758;28;20115;-64
2021/05/09 02:11:11;;;;;;;8.55;6.82;;;;;;;7.22;100.00;96124.34;4989630;28;20057;-64
2021/05/09 02:13:40;;;;;;;7.65;6.85;;;;;;;7.35;100.00;96117.06;5004701;28;20053;-64
2021/05/09 02:16:09;;;;;;;9.95;7.15;;;;;;;7.41;100.00;96118.34;4989019;28;20088;-65
2021/05/09 02:18:37;;;;;;;8.40;7.45;;;;;;;7.46;100.00;96110.06;5006833;28;20139;-63
2021/05/09 02:21:05;;;;;;;7.88;7.07;;;;;;;7.61;100.00;96109.56;5004616;28;20038;-64
2021/05/09 02:23:34;;;;;;;10.30;8.00;;;;;;;7.71;100.00;96112.22;5002323;28;20535;-63
2021/05/09 02:26:03;;;;;;;11.23;8.02;;;;;;;7.30;100.00;96106.16;4988502;28;20037;-64
2021/05/09 02:28:31;;;;;;;9.98;8.00;;;;;;;7.75;100.00;96103.09;4987005;28;20045;-64
2021/05/09 02:31:00;;;;;;;10.05;7.53;;;;;;;7.79;100.00;96109.72;5005232;28;20064;-65
2021/05/09 02:33:29;;;;;;;9.00;7.20;;;;;;;7.51;100.00;96108.72;5010946;28;20026;-63
2021/05/09 02:35:58;;;;;;;9.20;7.30;;;;;;;7.20;100.00;96101.84;5004293;28;20104;-65
2021/05/09 02:38:26;;;;;;;9.05;7.22;;;;;;;7.52;100.00;96104.28;5003902;28;20097;-64
2021/05/09 02:40:55;;;;;;;8.70;7.25;;;;;;;7.64;100.00;96105.00;5005884;28;20046;-64
2021/05/09 02:43:23;;;;;;;7.30;6.47;;;;;;;7.56;100.00;96113.53;5003694;28;20504;-64
2021/05/09 02:45:52;;;;;;;8.05;7.10;;;;;;;7.16;100.00;96105.69;4987966;28;20064;-62
2021/05/09 02:48:21;;;;;;;7.53;6.72;;;;;;;7.43;100.00;96111.16;4988438;28;20072;-64
2021/05/09 02:50:49;;;;;;;10.73;6.90;;;;;;;7.28;100.00;96102.00;5008568;28;20424;-64
2021/05/09 02:53:18;;;;;;;7.45;6.65;;;;;;;7.28;100.00;96107.25;4986663;28;20061;-64
2021/05/09 02:55:47;;;;;;;8.27;6.60;;;;;;;7.45;100.00;96104.00;4984479;28;20061;-65
2021/05/09 02:58:15;;;;;;;10.10;6.65;;;;;;;7.18;100.00;96112.47;4990333;28;20153;-64
2021/05/09 03:00:43;;;;;;;7.65;6.57;;;;;;;7.46;100.00;96107.44;5010508;28;20065;-63
2021/05/09 03:03:12;;;;;;;7.72;6.50;;;;;;;7.51;100.00;96113.13;5005945;28;21191;-64
2021/05/09 03:05:42;;;;;;;11.23;7.20;;;;;;;7.35;100.00;96114.44;5010149;28;20029;-64
2021/05/09 03:08:10;;;;;;;8.98;6.85;;;;;;;7.28;100.00;96109.88;4986919;28;20070;-64
2021/05/09 03:10:39;;;;;;;9.25;6.68;;;;;;;6.90;100.00;96109.59;4987418;28;20045;-64
2021/05/09 03:13:08;;;;;;;8.07;7.00;;;;;;;6.70;100.00;96105.19;4987399;28;20034;-64
2021/05/09 03:15:36;;;;;;;8.75;6.90;;;;;;;6.84;100.00;96110.09;4995763;28;20555;-64
2021/05/09 03:18:05;;;;;;;9.52;7.40;;;;;;;7.06;100.00;96108.28;5004338;28;20049;-63
2021/05/09 03:20:34;;;;;;;8.88;6.93;;;;;;;6.77;100.00;96106.34;4998827;28;20061;-63
2021/05/09 03:23:03;;;;;;;9.63;7.07;;;;;;;7.00;100.00;96100.94;5006033;28;20088;-61
2021/05/09 03:25:32;;;;;;;8.45;7.25;;;;;;;7.06;100.00;96092.56;5001936;28;20072;-62
2021/05/09 03:28:01;;;;;;;9.07;7.72;;;;;;;6.67;100.00;96102.84;4987945;28;20029;-64
2021/05/09 03:30:30;;;;;;;7.00;6.30;;;;;;;6.59;100.00;96102.66;4989402;28;20044;-64
2021/05/09 03:32:58;;;;;;;9.80;6.40;;;;;;;6.76;100.00;96111.72;5003406;28;20067;-64
2021/05/09 03:35:27;;;;;;;7.68;6.88;;;;;;;6.88;100.00;96108.03;4987999;28;20056;-63
2021/05/09 03:37:56;;;;;;;9.07;6.93;;;;;;;6.84;100.00;96102.22;5006241;28;20088;-61
2021/05/09 03:40:26;;;;;;;8.18;7.38;;;;;;;6.97;100.00;96106.44;4983852;28;20041;-66
2021/05/09 03:42:54;;;;;;;8.60;6.68;;;;;;;6.89;100.00;96107.94;4993239;28;20539;-64
2021/05/09 03:45:23;;;;;;;8.25;7.30;;;;;;;6.93;100.00;96098.00;5003597;28;20464;-62
2021/05/09 03:47:50;;;;;;;8.70;6.43;;;;;;;6.95;100.00;96098.72;5008004;28;20077;-62
2021/05/09 03:50:18;;;;;;;7.18;6.22;;;;;;;6.77;100.00;96108.97;5003532;28;20528;-65
2021/05/09 03:52:46;;;;;;;8.63;6.97;;;;;;;6.73;100.00;96106.72;5005070;28;20089;-61
2021/05/09 03:55:15;;;;;;;9.38;6.18;;;;;;;6.78;100.00;96104.53;5010012;28;20076;-65
2021/05/09 03:57:44;;;;;;;7.60;6.10;;;;;;;6.79;100.00;96104.44;4989923;28;20100;-64
2021/05/09 04:00:14;;;;;;;8.77;6.63;;;;;;;6.64;100.00;96106.56;5003183;28;21711;-63
2021/05/09 04:02:42;;;;;;;9.45;6.60;;;;;;;6.65;100.00;96102.97;5005711;28;20085;-64
2021/05/09 04:05:13;;;;;;;6.97;6.28;;;;;;;6.67;100.00;96108.06;5003709;28;20754;-64
2021/05/09 04:07:41;;;;;;;6.97;6.05;;;;;;;7.02;100.00;96101.63;5005651;28;20088;-64
2021/05/09 04:10:10;;;;;;;7.75;6.80;;;;;;;7.22;100.00;96102.53;5002650;28;20066;-64
2021/05/09 04:12:38;;;;;;;6.68;6.05;;;;;;;8.01;100.00;96095.50;5004496;28;20081;-64
2021/05/09 04:15:09;;;;;;;6.93;5.97;;;;;;;9.71;100.00;96078.84;5005128;28;20077;-64
2021/05/09 04:17:37;;;;;;;6.93;6.30;;;;;;;11.14;100.00;96071.56;5004628;28;20535;-64
2021/05/09 04:20:06;;;;;;;6.30;5.70;;;;;;;12.57;100.00;96075.88;5003634;28;20480;-64
2021/05/09 04:22:34;;;;;;;6.70;5.50;;;;;;;13.35;92.03;96074.44;5008917;28;20066;-64
2021/05/09 04:25:04;;;;;;;6.10;5.28;;;;;;;13.60;80.70;96079.63;5002233;28;20061;-65
2021/05/09 04:27:32;;;;;;;5.70;5.10;;;;;;;14.78;72.70;96074.03;4996899;28;20104;-64
2021/05/09 04:30:00;;;;;;;5.10;4.65;;;;;;;14.25;77.36;96077.41;5006249;28;20092;-65
2021/05/09 04:32:29;;;;;;;5.15;4.65;;;;;;;14.29;73.29;96085.00;5006155;28;20082;-65
2021/05/09 04:34:58;;;;;;;5.18;4.68;;;;;;;15.60;65.52;96063.34;5002779;28;21019;-63
2021/05/09 04:37:26;;;;;;;5.25;4.75;;;;;;;15.78;63.48;96070.94;5005974;28;20046;-65
2021/05/09 04:39:55;;;;;;;5.35;4.85;;;;;;;15.75;62.29;96066.00;5005387;28;20042;-64
2021/05/09 04:42:23;;;;;;;6.03;5.22;;;;;;;15.55;65.44;96076.34;5001281;28;20069;-63
2021/05/09 04:44:52;;;;;;;5.88;5.28;;;;;;;16.09;61.00;96068.81;5007813;28;20073;-65
2021/05/09 04:47:20;;;;;;;5.32;4.82;;;;;;;16.32;62.01;96068.66;5006291;28;20319;-65
2021/05/09 04:49:50;;;;;;;6.13;5.43;;;;;;;16.58;58.71;96064.56;5009168;28;20112;-65
2021/05/09 04:52:18;;;;;;;4.83;4.43;;;;;;;17.25;57.40;96061.44;5008249;28;20038;-65
2021/05/09 04:54:46;;;;;;;5.03;4.60;;;;;;;18.16;51.89;96060.38;5006760;28;20562;-65
2021/05/09 04:57:14;;;;;;;4.82;4.40;;;;;;;19.36;49.16;96053.22;5010469;28;20076;-64
2021/05/09 04:59:43;;;;;;;4.88;4.45;;;;;;;18.09;53.39;96059.53;5011501;28;20385;-65
2021/05/09 05:02:11;;;;;;;6.72;4.10;;;;;;;18.61;50.57;96056.13;5006808;28;20057;-65
2021/05/09 05:04:39;;;;;;;7.05;4.20;;;;;;;18.89;49.07;96063.16;5013316;28;20062;-63
2021/05/09 05:07:08;;;;;;;4.88;4.47;;;;;;;19.67;47.48;96056.03;5006489;28;20072;-66
2021/05/09 05:09:36;;;;;;;4.32;3.92;;;;;;;19.85;47.97;96054.50;5004137;28;20070;-64
2021/05/09 05:12:06;;;;;;;4.75;4.28;;;;;;;19.47;49.46;96057.91;4990225;28;20400;-64
2021/05/09 05:14:35;;;;;;;4.45;4.05;;;;;;;19.95;49.53;96054.06;5013528;28;20154;-63
2021/05/09 05:17:03;;;;;;;6.70;3.80;;;;;;;19.75;51.72;96064.84;5005518;28;20034;-63
2021/05/09 05:19:31;;;;;;;4.82;4.25;;;;;;;19.76;50.33;96061.16;4998065;28;20138;-64
2021/05/09 05:21:59;;;;;;;4.75;3.92;;;;;;;19.94;50.11;96061.28;5007551;28;20137;-63
2021/05/09 05:24:29;;;;;;;4.18;3.78;;;;;;;20.55;50.26;96063.44;4988451;28;20087;-63
2021/05/09 05:26:57;;;;;;;4.22;3.70;;;;;;;21.25;47.20;96054.38;4987795;28;20068;-64
2021/05/09 05:29:25;;;;;;;3.78;3.38;;;;;;;19.38;54.68;96065.34;5010498;28;20073;-65
2021/05/09 05:31:53;;;;;;;3.45;2.97;;;;;;;21.13;44.41;96058.81;5010450;28;20062;-65
2021/05/09 05:34:21;;;;;;;3.92;3.35;;;;;;;20.41;48.39;96066.38;5008336;28;20519;-64
2021/05/09 05:36:49;;;;;;;3.45;2.78;;;;;;;20.65;47.21;96059.44;5008919;28;20512;-64
2021/05/09 05:39:17;;;;;;;2.63;2.40;;;;;;;19.67;45.87;96058.69;4987919;28;20073;-66
2021/05/09 05:41:46;;;;;;;2.42;2.22;;;;;;;19.39;49.31;96063.50;5013434;28;20077;-65
2021/05/09 05:44:15;;;;;;;5.70;2.88;;;;;;;18.71;55.02;96063.75;5007454;28;20444;-64
2021/05/09 05:46:49;;;;;;;2.30;2.00;;;;;;;16.02;61.15;96065.28;5005536;28;20077;-65
2021/05/09 05:49:17;;;;;;;3.42;2.03;;;;;;;15.28;69.21;96062.72;5007013;28;20045;-64
2021/05/09 05:51:46;;;;;;;3.08;1.90;;;;;;;15.43;67.75;96058.22;5007561;28;20042;-64
2021/05/09 05:54:15;;;;;;;3.22;1.98;;;;;;;15.25;71.10;96052.47;5007128;28;20038;-64
2021/05/09 05:56:43;;;;;;;3.28;2.28;;;;;;;15.16;74.19;96058.88;4994569;28;20092;-64
2021/05/09 05:59:12;;;;;;;2.92;2.33;;;;;;;15.31;73.86;96058.84;5008859;28;20065;-64
2021/05/09 06:01:40;;;;;;;2.35;2.15;;;;;;;14.78;79.35;96061.56;5004978;28;20470;-65
2021/05/09 06:04:08;;;;;;;3.58;2.50;;;;;;;14.82;81.71;96054.88;5005644;28;20530;-63
2021/05/09 06:06:36;;;;;;;2.72;2.42;;;;;;;14.95;81.97;96059.59;5010597;28;20077;-65
2021/05/09 06:09:05;;;;;;;4.90;2.55;;;;;;;15.14;81.09;96048.44;5005551;28;20531;-63
2021/05/09 06:11:33;;;;;;;3.40;2.45;;;;;;;15.06;79.79;96048.50;5007232;28;20085;-63
2021/05/09 06:14:01;;;;;;;3.40;2.30;;;;;;;15.24;82.55;96047.31;4989067;28;20061;-64
2021/05/09 06:16:50;;;;;;;3.80;2.50;;;;;;;15.63;79.24;96049.69;4999444;28;20061;-64
2021/05/09 06:19:18;;;;;;;3.13;2.40;;;;;;;15.06;88.01;96053.81;4988673;28;20515;-64
2021/05/09 06:21:46;;;;;;;3.63;2.70;;;;;;;15.28;86.33;96057.41;5010604;28;20590;-65
2021/05/09 06:24:15;;;;;;;2.90;2.33;;;;;;;15.08;88.01;96051.81;5006980;28;20436;-65
2021/05/09 06:26:44;;;;;;;2.83;2.30;;;;;;;15.35;85.06;96055.66;5009809;28;22597;-64
2021/05/09 06:29:12;;;;;;;3.25;2.50;;;;;;;15.82;80.93;96054.41;5007109;28;20073;-64
2021/05/09 06:31:39;;;;;;;3.22;2.47;;;;;;;15.93;85.14;96055.75;5005832;28;20049;-65
2021/05/09 06:34:09;;;;;;;3.25;2.95;;;;;;;16.12;86.51;96051.69;5000838;28;20058;-64
2021/05/09 06:36:38;;;;;;;3.00;2.30;;;;;;;16.25;78.56;96049.16;5007857;28;20050;-65
2021/05/09 06:39:06;;;;;;;5.72;2.50;;;;;;;16.31;81.15;96047.53;5003859;28;20084;-65
2021/05/09 06:41:35;;;;;;;3.45;2.90;;;;;;;16.37;82.91;96054.78;4999947;28;20837;-64
2021/05/09 06:44:08;;;;;;;4.07;2.30;;;;;;;16.65;85.52;96046.00;5005406;28;20081;-65
2021/05/09 06:46:37;;;;;;;2.90;2.30;;;;;;;16.76;81.68;96043.69;5004369;28;20042;-62
2021/05/09 06:49:06;;;;;;;4.03;2.20;;;;;;;16.98;82.29;96038.31;5008610;28;20524;-65
2021/05/09 06:51:35;;;;;;;2.70;2.50;;;;;;;17.04;84.44;96042.84;5007209;28;20105;-64
2021/05/09 06:54:06;;;;;;;4.55;2.83;;;;;;;17.15;82.70;96034.31;4989580;28;20053;-65
2021/05/09 06:56:34;;;;;;;5.82;2.90;;;;;;;17.43;79.98;96038.75;5000811;28;20096;-66
2021/05/09 06:59:03;;;;;;;4.80;3.25;;;;;;;17.98;88.17;96042.28;5009099;28;20076;-65
2021/05/09 07:01:31;;;;;;;3.35;2.90;;;;;;;17.95;86.61;96042.69;4998089;28;20066;-66
2021/05/09 07:03:59;;;;;;;3.95;3.20;;;;;;;18.34;84.63;96041.13;5003979;28;20508;-64
2021/05/09 07:06:27;;;;;;;3.03;2.70;;;;;;;17.96;85.36;96042.50;5007637;28;20153;-64
2021/05/09 07:08:55;;;;;;;4.15;3.10;;;;;;;18.59;83.97;96031.50;5003589;28;20081;-64
2021/05/09 07:11:23;;;;;;;3.60;2.60;;;;;;;18.07;84.77;96038.41;5008426;28;20081;-64
2021/05/09 07:13:57;;;;;;;4.45;2.58;;;;;;;18.63;82.04;96031.91;4993500;28;20515;-64
2021/05/09 07:16:26;;;;;;;3.00;2.67;;;;;;;19.10;83.56;96030.06;5006256;28;20065;-64
2021/05/09 07:18:55;;;;;;;4.32;2.50;;;;;;;19.29;76.93;96031.03;5004050;28;20524;-63
2021/05/09 07:21:26;;;;;;;2.30;2.10;;;;;;;19.63;74.40;96025.38;5007244;28;20069;-65
2021/05/09 07:23:56;;;;;;;4.07;2.40;;;;;;;19.71;74.50;96024.31;5006363;28;20508;-63
2021/05/09 07:26:24;;;;;;;6.00;2.40;;;;;;;19.36;70.82;96029.16;5009188;28;20054;-64
2021/05/09 07:28:51;;;;;;;3.83;2.08;;;;;;;19.36;72.31;96023.81;5005283;28;20081;-64
2021/05/09 07:31:19;;;;;;;3.78;1.90;;;;;;;19.69;65.82;96026.41;5002708;28;20072;-65
2021/05/09 07:33:48;;;;;;;3.15;1.60;;;;;;;19.89;64.61;96021.78;5005320;28;20073;-65
2021/05/09 07:36:15;;;;;;;1.75;1.45;;;;;;;19.69;63.86;96015.69;5004101;28;20064;-65
2021/05/09 07:38:43;;;;;;;2.33;1.60;;;;;;;20.06;55.58;96027.47;5007634;28;20081;-66
2021/05/09 07:41:13;;;;;;;1.85;1.50;;;;;;;20.26;59.91;96023.81;5011055;28;20037;-65
2021/05/09 07:43:45;;;;;;;1.60;1.30;;;;;;;20.59;57.21;96019.09;5006212;28;20556;-65
2021/05/09 07:46:14;;;;;;;5.07;1.33;;;;;;;20.75;56.94;96017.72;5004133;28;20648;-63
2021/05/09 07:48:43;;;;;;;1.88;1.25;;;;;;;20.56;54.51;96016.84;5004832;28;20444;-66
2021/05/09 07:51:12;;;;;;;2.20;1.70;;;;;;;21.37;55.21;96012.41;5002519;28;20049;-64
2021/05/09 07:53:41;;;;;;;1.50;1.40;;;;;;;21.05;54.74;96023.22;5008382;28;20089;-63
2021/05/09 07:56:10;;;;;;;2.05;1.30;;;;;;;21.29;50.79;96012.66;5005936;28;20070;-65
2021/05/09 07:58:39;;;;;;;1.70;1.38;;;;;;;21.45;49.52;96014.78;5005169;28;20066;-65
2021/05/09 08:01:06;;;;;;;1.73;1.45;;;;;;;22.01;51.05;96018.22;5003523;28;20072;-65
2021/05/09 08:03:36;;;;;;;2.05;1.20;;;;;;;21.81;48.50;96018.47;4981197;28;20400;-64
2021/05/09 08:06:04;;;;;;;1.55;1.20;;;;;;;21.50;49.31;96012.25;5010432;28;20092;-66
2021/05/09 08:08:32;;;;;;;1.48;1.20;;;;;;;21.71;47.48;96010.97;5007006;28;20080;-60
2021/05/09 08:11:01;;;;;;;1.67;1.30;;;;;;;21.90;48.20;96010.94;4988246;28;20065;-65
2021/05/09 08:13:31;;;;;;;1.60;1.35;;;;;;;22.12;44.35;96011.25;4987348;28;20359;-65
2021/05/09 08:16:00;;;;;;;2.80;1.30;;;;;;;22.49;44.76;96010.09;5005072;28;20041;-64
2021/05/09 08:18:29;;;;;;;1.45;1.25;;;;;;;22.39;47.22;95999.09;5005106;28;20041;-62
2021/05/09 08:20:57;;;;;;;1.77;1.35;;;;;;;22.47;43.81;96006.84;5003163;28;20085;-65
2021/05/09 08:23:25;;;;;;;1.90;1.30;;;;;;;22.50;46.90;96000.16;4992775;28;20065;-64
2021/05/09 08:25:54;;;;;;;1.45;1.05;;;;;;;22.76;44.60;95993.56;4987505;28;20069;-63
2021/05/09 08:28:22;;;;;;;2.20;1.35;;;;;;;22.69;45.37;96003.59;5004634;28;20070;-65
2021/05/09 08:30:50;;;;;;;2.55;1.20;;;;;;;22.65;43.42;95999.75;4986101;28;20531;-60
2021/05/09 08:33:38;;;;;;;1.77;1.20;;;;;;;22.89;43.38;95992.53;5009395;28;20456;-65
2021/05/09 08:36:07;;;;;;;2.13;1.05;;;;;;;23.00;43.67;95991.72;5006188;28;20046;-63
2021/05/09 08:38:36;;;;;;;2.30;1.20;;;;;;;23.03;42.99;95980.50;4989371;28;20066;-63
2021/05/09 08:41:04;;;;;;;1.48;1.35;;;;;;;23.17;43.74;95989.94;5004941;28;20132;-63
2021/05/09 08:43:32;;;;;;;3.13;1.65;;;;;;;23.64;41.58;95979.09;5006561;28;20065;-61
2021/05/09 08:46:03;;;;;;;2.97;1.58;;;;;;;23.21;42.50;95976.84;5003065;28;20088;-64
2021/05/09 08:48:32;;;;;;;1.40;1.30;;;;;;;23.59;40.96;95972.78;5003102;28;20112;-64
2021/05/09 08:51:03;;;;;;;1.50;1.27;;;;;;;23.26;41.90;95970.75;5007404;28;20085;-63
2021/05/09 08:53:31;;;;;;;2.28;1.48;;;;;;;23.16;41.29;95979.44;5004478;28;20524;-62
2021/05/09 08:56:00;;;;;;;2.47;1.45;;;;;;;23.44;41.87;95976.81;5003953;28;20050;-62
2021/05/09 08:58:28;;;;;;;3.20;1.27;;;;;;;23.56;42.20;95975.97;5008525;28;20065;-63
2021/05/09 09:00:56;;;;;;;2.92;1.20;;;;;;;23.87;41.85;95974.72;5003775;28;20507;-64
2021/05/09 09:03:25;;;;;;;3.10;1.50;;;;;;;24.00;41.67;95970.91;5002637;28;20073;-61
2021/05/09 09:05:54;;;;;;;1.48;1.27;;;;;;;24.21;42.24;95970.22;5003305;28;20074;-62
2021/05/09 09:08:23;;;;;;;1.80;1.23;;;;;;;24.12;41.79;95977.06;5005214;28;20104;-63
2021/05/09 09:10:53;;;;;;;1.95;1.15;;;;;;;24.04;39.97;95969.38;5003646;28;20531;-62
2021/05/09 09:13:26;;;;;;;1.02;1.00;;;;;;;24.29;38.52;95967.13;5007318;28;20168;-62
2021/05/09 09:15:56;;;;;;;1.00;0.90;;;;;;;24.49;38.03;95964.00;5004439;28;20598;-60
2021/05/09 09:18:25;;;;;;;1.45;1.10;;;;;;;24.19;39.63;95968.81;5002098;28;20073;-63
2021/05/09 09:20:54;;;;;;;1.77;1.20;;;;;;;24.34;39.32;95953.75;5003536;28;20081;-63
2021/05/09 09:23:24;;;;;;;2.67;1.40;;;;;;;24.99;40.56;95949.66;5005989;28;20533;-62
2021/05/09 09:25:52;;;;;;;1.63;1.10;;;;;;;24.63;38.87;95957.19;5010476;28;20045;-63
2021/05/09 09:28:21;;;;;;;3.78;1.15;;;;;;;24.82;39.33;95943.47;5004361;28;20124;-61
2021/05/09 09:30:53;;;;;;;1.92;1.20;;;;;;;25.26;40.42;95939.00;5004384;28;20066;-63
2021/05/09 09:33:21;;;;;;;1.58;1.00;;;;;;;24.95;40.02;95929.66;5007578;28;20072;-64
2021/05/09 09:35:54;;;;;;;2.05;1.48;;;;;;;24.94;39.47;95924.47;5010457;28;20441;-64
2021/05/09 09:38:28;;;;;;;1.48;1.30;;;;;;;25.20;39.40;95931.09;5006645;28;21280;-56
2021/05/09 09:41:10;;;;;;;1.65;1.35;;;;;;;25.12;40.27;95931.50;5007619;28;20038;-66
2021/05/09 09:43:39;;;;;;;1.70;1.30;;;;;;;25.13;41.05;95930.47;5008415;28;20097;-65
2021/05/09 09:46:26;;;;;;;1.35;1.25;;;;;;;25.00;40.73;95929.72;5004016;28;20066;-66
2021/05/09 09:48:54;;;;;;;2.67;1.25;;;;;;;25.27;40.81;95932.53;5000882;28;20065;-64
2021/05/09 09:51:22;;;;;;;2.00;1.33;;;;;;;25.36;39.67;95929.38;5010893;28;20066;-61
2021/05/09 09:53:53;;;;;;;2.50;1.23;;;;;;;25.65;40.33;95921.91;5009518;28;20077;-61
2021/05/09 09:56:21;;;;;;;;;;;;;;;25.53;38.01;95924.72;5007183;28;20169;-64
2021/05/09 09:58:52;;;;;;;2.63;1.70;;;;;;;25.64;38.02;95913.00;4992373;28;20202;-64
2021/05/09 10:01:24;;;;;;;4.20;1.23;;;;;;;25.68;38.88;95918.72;5010456;28;20081;-64
2021/05/09 10:03:54;;;;;;;2.08;1.33;;;;;;;25.63;38.35;95915.94;4985722;28;20711;-65
2021/05/09 10:06:23;;;;;;;3.35;1.30;;;;;;;25.17;38.03;95913.50;5005956;28;20061;-64
2021/05/09 10:08:54;;;;;;;1.42;1.33;;;;;;;25.85;37.53;95905.16;4990075;28;20045;-65
2021/05/09 10:11:24;;;;;;;2.85;1.13;;;;;;;25.98;36.46;95900.16;5006250;28;20357;-65
2021/05/09 10:13:52;;;;;;;1.50;1.20;;;;;;;26.41;38.09;95897.53;5001298;28;20069;-63
2021/05/09 10:16:23;;;;;;;1.90;1.00;;;;;;;25.97;35.46;95898.50;5011341;28;20041;-64
2021/05/09 10:18:54;;;;;;;1.27;1.10;;;;;;;26.20;33.08;95889.25;5002478;28;20088;-63
2021/05/09 10:21:27;;;;;;;1.98;1.40;;;;;;;26.20;34.13;95888.44;4992302;28;20049;-60
2021/05/09 10:24:11;;;;;;;2.45;1.17;;;;;;;25.84;32.43;95889.97;4995819;28;20042;-64
2021/05/09 10:26:47;;;;;;;4.47;3.17;;;;;;;26.04;32.27;95888.28;5007175;28;20057;-62
2021/05/09 10:29:47;;;;;;;3.20;1.30;;;;;;;25.95;33.04;95891.75;5006953;28;20068;-62
2021/05/09 10:32:49;;;;;;;2.80;2.35;;;;;;;26.17;33.76;95881.66;4991811;28;20066;-61
2021/05/09 10:35:43;;;;;;;5.70;4.78;;;;;;;26.28;34.50;95869.03;4994335;28;20120;-62
2021/05/09 10:38:12;;;;;;;2.90;1.58;;;;;;;26.07;33.96;95876.16;5002501;28;20030;-64
2021/05/09 10:40:45;;;;;;;4.55;1.65;;;;;;;26.42;35.11;95867.50;5004761;28;20069;-64
2021/05/09 10:43:31;;;;;;;;;;;;;;;26.32;34.67;95867.44;5004165;28;20069;-64
2021/05/09 10:45:59;;;;;;;4.85;1.35;;;;;;;26.69;35.40;95870.16;5006294;28;19956;-63
2021/05/09 10:48:34;;;;;;;3.58;1.20;;;;;;;26.65;37.44;95866.34;4991789;28;20183;-64
2021/05/09 10:51:31;;;;;;;1.58;1.20;;;;;;;26.88;36.13;95853.50;5004311;28;20092;-65
2021/05/09 10:54:27;;;;;;;1.92;1.10;;;;;;;26.43;34.45;95852.94;5003248;28;20099;-64
2021/05/09 10:56:56;;;;;;;1.40;1.20;;;;;;;27.04;34.28;95854.38;4957413;28;20092;-60
2021/05/09 10:59:59;;;;;;;2.38;1.30;;;;;;;26.87;34.95;95854.56;5008552;28;20034;-62
2021/05/09 11:02:31;;;;;;;5.05;1.25;;;;;;;27.02;36.67;95848.44;5003375;28;20065;-61
2021/05/09 11:05:00;;;;;;;1.58;1.25;;;;;;;26.74;35.43;95836.94;5004315;28;20034;-65
2021/05/09 11:07:45;;;;;;;2.78;1.50;;;;;;;27.02;35.76;95840.31;5004694;28;20057;-64
2021/05/09 11:10:41;;;;;;;2.00;1.52;;;;;;;27.02;34.72;95834.91;5004255;28;20068;-64
2021/05/09 11:13:12;;;;;;;3.28;1.35;;;;;;;26.77;34.80;95833.69;5008737;28;20040;-64
2021/05/09 11:15:40;;;;;;;3.22;1.30;;;;;;;27.06;35.20;95830.59;5002937;28;20061;-62
2021/05/09 11:18:16;;;;;;;1.80;1.20;;;;;;;27.34;33.54;95823.94;4985235;28;20038;-61
2021/05/09 11:20:54;;;;;;;2.00;1.27;;;;;;;27.18;34.04;95823.06;5009231;28;20378;-63
2021/05/09 11:23:23;;;;;;;2.08;1.30;;;;;;;27.13;33.19;95821.16;5002958;28;21330;-62
2021/05/09 11:25:52;;;;;;;3.28;2.00;;;;;;;27.39;33.18;95819.38;5003806;28;20077;-63
2021/05/09 11:28:30;;;;;;;1.80;1.38;;;;;;;27.62;33.66;95815.34;5003077;28;20100;-64
2021/05/09 11:30:59;;;;;;;2.25;1.42;;;;;;;27.31;38.79;95819.88;5001398;28;20074;-63
2021/05/09 11:33:52;;;;;;;2.00;1.50;;;;;;;27.86;37.81;95810.25;5004922;28;20068;-64
2021/05/09 11:36:27;;;;;;;1.65;1.38;;;;;;;27.30;36.03;95809.31;5005027;28;20585;-64
2021/05/09 11:39:09;;;;;;;1.48;1.30;;;;;;;27.36;34.79;95806.38;5002824;28;20081;-62
2021/05/09 11:41:52;;;;;;;1.60;1.23;;;;;;;26.85;36.11;95795.31;5007316;28;20727;-63
2021/05/09 11:44:22;;;;;;;2.55;1.42;;;;;;;27.55;34.28;95790.41;5003761;28;20782;-63
2021/05/09 11:46:51;;;;;;;1.27;1.15;;;;;;;27.08;36.00;95791.38;5005679;28;20084;-62
2021/05/09 11:49:21;;;;;;;2.35;1.10;;;;;;;26.84;37.04;95782.03;5003360;28;20068;-61